x

Grays Reef - 40 Nm Southeast Of Savannah, Ga (41008) Wave Buoy

2:50am - Thu 2nd Oct 2014 All times are EDT. -4 hours from GMT.

  • Sig Wave height 2.0ft
  • Swell Direction
  • Peak Period 8s
  • Average Period 4s
  • Wind
    9mph, 11mph gusts
  • Sea Temp 79°f
  • Air Temp 78°f
  • Sea Pressure 1016.1mb
  • Grays Reef - 40 Nm Southeast Of Savannah, Ga
  • Grays Reef - 40 Nm Southeast Of Savannah, Ga

More Historic Weather Station data

Upgrade to MSW Pro to gain access to the past 30 days of data for over 8000 Wavebouys and Weather Stations around the globe.

Join Pro

Comparision Forecast

View Surf forecast
   
Thu 10/02 2:50am 2ft 8s 4s 9 11 mph 1016.1mb 79f 78f
1:50am 2ft 8s 4s 11 13 mph 1015.9mb 79f 78f
12:50am 2.5ft 7s 4s 11
mph
1016.2mb 79f 78f
Wed 10/01 11:50pm 2.5ft 4s 4s 11 13 mph 1016.3mb 79f 78f
10:50pm 2.5ft 7s 4s 11 13 mph 1016.5mb 79f 78f
9:50pm 2.5ft 8s 4s 11 13 mph 1016.1mb 79f 77f
8:50pm 2.5ft 8s 4s 13 16 mph 1015.4mb 79f 77f
7:50pm 2.5ft 13s 4s 13 16 mph 1015mb 79f 77f
6:50pm 2.5ft 7s 4s 13
mph
1015mb 79f 77f
5:50pm 2ft 6s 5s 13 16 mph 1014.6mb 79f 77f
4:50pm 2ft 8s 5s 11 13 mph 1014.6mb 79f 77f
3:50pm 2.5ft 6s 5s 11 13 mph 1014.6mb 79f 77f
2:50pm 2.5ft 6s 5s 11 13 mph 1014.7mb 79f 77f
1:50pm 2.5ft 5s 5s 9 11 mph 1015.1mb 79f 77f
12:50pm 2.5ft 6s 5s 9 11 mph 1015.4mb 79f 76f
11:50am 2.5ft 6s 5s 9 11 mph 1015.6mb 79f 76f
10:50am 2.5ft 6s 5s 9 11 mph 1015.5mb 79f 75f
9:50am 2.5ft 6s 5s 9 11 mph 1014.9mb 79f 75f
8:50am 2.5ft 6s 5s 11 13 mph 1014.3mb 78f 75f
7:50am 2.5ft 7s 5s 9 11 mph 1013.7mb 78f 75f
6:50am 2.5ft 6s 5s 7 9 mph 1013.4mb 78f 76f
5:50am 2.5ft 7s 5s 7 9 mph 1012.7mb 78f 76f
4:50am 2.5ft 6s 5s 7 9 mph 1012.1mb 79f 76f
2:50am 2.5ft 6s 5s 9
mph
1012mb 79f 77f
1:50am 2.5ft 7s 5s 9 11 mph 1012mb 79f 77f
12:50am 3ft 6s 5s 9 11 mph 1012.1mb 79f 77f
Tue 09/30 11:50pm 3ft 7s 5s 9 11 mph 1012.3mb 79f 77f
10:50pm 3ft 6s 5s 9 11 mph 1012.5mb 79f 77f
9:50pm 3ft 7s 5s 9 13 mph 1012.4mb 79f 77f
8:50pm 3.5ft 6s 5s 11 16 mph 1011.9mb 79f 76f
7:50pm 3ft 6s 5s 11 16 mph 1011.4mb 79f 76f
6:50pm 3.5ft 6s 5s 11 13 mph 1011mb 79f 75f
5:50pm 3.5ft 6s 5s 11 16 mph 1010.6mb 79f 75f
4:50pm 4ft 6s 5s 11 16 mph 1010.4mb 79f 75f
3:50pm 3.5ft 6s 5s 13 18 mph 1010.5mb 79f 74f
2:50pm 3.5ft 5s 5s 16 20 mph 1010.7mb 79f 74f
1:50pm 4ft 6s 5s 16 20 mph 1011.1mb 79f 73f
12:50pm 4ft 6s 4s 18 20 mph 1011.6mb 79f 73f
11:50am 4ft 6s 5s 18 22 mph 1011.5mb 79f 73f
10:50am 4.5ft 5s 5s 18 22 mph 1011.5mb 79f 72f
9:50am 4.5ft 4s 4s 18 22 mph 1011.5mb 79f 73f
8:50am 4.5ft 5s 5s 20 25 mph 1011.1mb 79f 73f
7:50am 4.5ft 6s 4s 20 22 mph 1010.8mb 79f 74f
6:50am 5ft 6s 5s 20 25 mph 1010.1mb 79f 74f
5:50am 5ft 6s 5s 20 25 mph 1009.5mb 79f 74f
4:50am 5.5ft 6s 5s 20 25 mph 1009.2mb 79f 75f
3:50am 4.5ft 6s 5s 20 25 mph 1009.2mb 79f 75f
2:50am 3.5ft 5s 5s 22 25 mph 1009.3mb 79f 75f
1:50am 3.5ft 6s 5s 11 13 mph 1010mb 79f 76f
12:50am 4ft 6s 5s 13 16 mph 1010.1mb 79f 76f
Mon 09/29 11:50pm 4ft 5s 5s 7 11 mph 1010.7mb 79f 76f
10:50pm 4ft 6s 5s 9 11 mph 1011.4mb 79f 75f
9:50pm 3.5ft 5s 4s 9 11 mph 1011.5mb 79f 75f
8:50pm 3.5ft 5s 4s 11 13 mph 1011.2mb 79f 75f
7:50pm 3.5ft 4s 4s 13 18 mph 1011.3mb 79f 75f
6:50pm 3.5ft 8s 4s 18 20 mph 1011mb 79f 76f
5:50pm 3ft 8s 4s 20 22 mph 1010.9mb 79f 76f
4:50pm 2.5ft 8s 4s 18 20 mph 1010.9mb 79f 76f
3:50pm 2.5ft 9s 5s 13 16 mph 1011.3mb 79f 76f
2:50pm 2.5ft 10s 5s 11 13 mph 1011.6mb 79f 77f
1:50pm 2.5ft 9s 5s 9 11 mph 1012mb 79f 77f
12:50pm 2.5ft 10s 5s 9 11 mph 1012.9mb 79f 76f
11:50am 2.5ft 9s 6s 9 13 mph 1013.5mb 79f 76f
10:50am 2.5ft 8s 6s 9
mph
1013.8mb 79f 75f
9:50am 2.5ft 8s 5s 4
mph
1014.1mb 79f 73f
8:50am 3ft 6s 5s 7 16 mph 1013.8mb 79f 76f
7:50am 3ft 8s 5s 7 9 mph 1013.8mb 79f 78f
6:50am 3ft 8s 5s 7
mph
1013.7mb 79f 78f
5:50am 2.5ft 9s 5s 7 9 mph 1013.8mb 79f 78f
4:50am 2.5ft 8s 5s 9 11 mph 1013.8mb 79f 78f
3:50am 2.5ft 9s 5s 7 9 mph 1014mb 79f 78f
2:50am 2.5ft 10s 5s 9 11 mph 1014.3mb 79f 78f
1:50am 2.5ft 10s 5s 11 13 mph 1014.7mb 79f 78f
12:50am 3ft 8s 5s 9 11 mph 1015.4mb 79f 78f
Sun 09/28 11:50pm 3ft 8s 5s 11 13 mph 1015.8mb 79f 78f
10:50pm 3.5ft 8s 5s 9 11 mph 1016.2mb 79f 78f
9:50pm 3.5ft 9s 5s 11 13 mph 1016.1mb 79f 78f
8:50pm 3.5ft 8s 5s 13 16 mph 1015.8mb 79f 78f
7:50pm 3.5ft 8s 5s 11 13 mph 1015.8mb 79f 78f
6:50pm 3.5ft 7s 4s 13 16 mph 1015.8mb 80f 78f
5:50pm 3.5ft 8s 5s 16 18 mph 1015.5mb 80f 78f
4:50pm 3.5ft 10s 5s 13 16 mph 1015.3mb 80f 78f
3:50pm 3.5ft 8s 5s 11 13 mph 1015.5mb 80f 79f
2:50pm 3ft 7s 5s 9
mph
1016.1mb 80f 79f
1:50pm 3.5ft 7s 5s 7
mph
1017mb 80f 80f
12:50pm 3.5ft 7s 5s 7 9 mph 1017.5mb 80f 79f
11:50am 3.5ft 7s 5s 9 11 mph 1017.9mb 79f 78f
10:50am 3.5ft 8s 5s 13 16 mph 1018.1mb 79f 78f
9:50am 4ft 7s 5s 16 18 mph 1017.9mb 79f 77f
8:50am 4ft 8s 5s 16 18 mph 1017.3mb 79f 77f